Alfred, North Dakota
Current Conditions -  °F | °C
As of 7:29 AM on Friday 28 Nov 2014 (Local Time) from KJMS Reporting Station
Light Snow Light Snow  
Wind Chill: -7°   Ceiling: 900
Heat Index:   Visibility: 2mi
Dew Point:   Wind: 9mph
Humidity: 84%   Direction: 100°E
Pressure: 29.85"   Gusts: NA
Location:  46.4882°N, 98.8135°W
Report Text: KJMS 281329Z AUTO 10008KT 2SM -SN BR BKN009 OVC039 M14/M16 A2985 RMK AO2 UPB04E09SNB12 P0000 T11391161
Loading
Personal Weather Stations






























Interactive Weather Map New forecast layout! Learn more

10-Day Weather Forecast

Advertisements
Track Severe Weather on mobile